Time;durP1;ratioP1;P1;durP2;ratioP2;P2;SDS_P1;SDS_P2;PMS_P1;PMS_P2;Temp;Humidity;BMP_temperature;BMP_pressure;BME280_temperature;BME280_humidity;BME280_pressure;Samples;Min_cycle;Max_cycle;Signal;HPM_P1;HPM_P2
2022/06/27 00:00:03;;;;;;;0.80;0.30;;;21.40;96.20;;;;;;4138669;28;20063;-76
2022/06/27 00:02:04;;;;;;;1.83;0.40;;;21.40;96.00;;;;;;4138736;28;20066;-75
2022/06/27 00:04:06;;;;;;;0.50;0.40;;;21.40;95.70;;;;;;4141175;28;20061;-75
2022/06/27 00:06:09;;;;;;;0.55;0.30;;;21.30;96.00;;;;;;4138689;28;20624;-75
2022/06/27 00:08:11;;;;;;;0.40;0.22;;;21.40;96.10;;;;;;4139322;28;20701;-76
2022/06/27 00:10:13;;;;;;;0.10;0.10;;;21.40;95.20;;;;;;4139604;28;20054;-75
2022/06/27 00:12:14;;;;;;;1.30;0.22;;;21.40;94.90;;;;;;4139182;28;20063;-76
2022/06/27 00:14:16;;;;;;;0.20;0.20;;;21.40;94.80;;;;;;4139365;28;20059;-75
2022/06/27 00:16:18;;;;;;;0.47;0.20;;;21.50;94.20;;;;;;4136845;28;20149;-74
2022/06/27 00:18:40;;;;;;;0.30;0.20;;;21.40;94.40;;;;;;4139609;28;20055;-75
2022/06/27 00:20:41;;;;;;;0.20;0.20;;;21.40;94.30;;;;;;4142159;28;20145;-76
2022/06/27 00:22:43;;;;;;;1.75;0.40;;;21.40;94.60;;;;;;4141426;28;20066;-73
2022/06/27 00:24:45;;;;;;;0.60;0.30;;;21.30;94.80;;;;;;4139332;28;20801;-74
2022/06/27 00:26:48;;;;;;;1.92;0.30;;;21.30;95.20;;;;;;4144982;28;20797;-74
2022/06/27 00:28:50;;;;;;;2.25;0.20;;;21.30;95.50;;;;;;4137469;28;20066;-74
2022/06/27 00:30:51;;;;;;;0.32;0.30;;;21.30;95.60;;;;;;4138539;28;20054;-77
2022/06/27 00:32:54;;;;;;;0.52;0.20;;;21.40;95.50;;;;;;4145981;28;20133;-73
2022/06/27 00:34:55;;;;;;;1.85;0.30;;;21.50;94.90;;;;;;4139545;28;20050;-73
2022/06/27 00:36:57;;;;;;;0.13;0.10;;;21.50;94.60;;;;;;4141796;28;20054;-74
2022/06/27 00:38:59;;;;;;;0.20;0.20;;;21.60;94.50;;;;;;4137948;28;20687;-73
2022/06/27 00:41:01;;;;;;;2.88;0.52;;;21.60;94.20;;;;;;4134700;28;20054;-74
2022/06/27 00:43:02;;;;;;;0.85;0.30;;;21.60;94.40;;;;;;4140705;28;20058;-73
2022/06/27 00:45:05;;;;;;;0.40;0.22;;;21.60;94.50;;;;;;4136764;28;20059;-73
2022/06/27 00:47:09;;;;;;;1.38;0.20;;;21.50;94.10;;;;;;4141342;28;20085;-73
2022/06/27 00:49:10;;;;;;;2.10;0.10;;;21.40;94.20;;;;;;4140085;28;20058;-74
2022/06/27 00:51:12;;;;;;;1.33;0.20;;;21.40;94.50;;;;;;4140592;28;20137;-74
2022/06/27 00:53:14;;;;;;;0.25;0.10;;;21.30;94.40;;;;;;4139488;28;20065;-76
2022/06/27 00:55:16;;;;;;;0.55;0.38;;;21.20;94.40;;;;;;4143448;28;20217;-74
2022/06/27 00:57:18;;;;;;;1.80;0.20;;;21.10;94.60;;;;;;4142947;28;20131;-74
2022/06/27 00:59:20;;;;;;;0.75;0.40;;;20.90;95.00;;;;;;4137485;28;20162;-74
2022/06/27 01:01:21;;;;;;;0.47;0.20;;;20.60;96.00;;;;;;4148224;28;20063;-74
2022/06/27 01:03:23;;;;;;;0.82;0.30;;;20.30;96.70;;;;;;4149661;28;20054;-74
2022/06/27 01:05:25;;;;;;;1.88;0.30;;;19.80;97.80;;;;;;4144102;28;20889;-75
2022/06/27 01:07:27;;;;;;;3.85;0.20;;;19.60;99.30;;;;;;4143615;28;20097;-75
2022/06/27 01:09:28;;;;;;;1.13;0.10;;;19.40;99.90;;;;;;4143848;28;20058;-76
2022/06/27 01:11:31;;;;;;;1.00;0.38;;;19.30;99.90;;;;;;4135402;28;20061;-75
2022/06/27 01:13:34;;;;;;;1.83;0.40;;;19.30;99.90;;;;;;4133611;28;20162;-77
2022/06/27 01:15:35;;;;;;;0.73;0.40;;;19.30;99.90;;;;;;4133268;28;20090;-74
2022/06/27 01:17:37;;;;;;;1.42;0.57;;;19.30;99.90;;;;;;4143235;28;20140;-75
2022/06/27 01:19:40;;;;;;;0.82;0.30;;;19.30;99.90;;;;;;4148600;28;20055;-76
2022/06/27 01:21:48;;;;;;;0.55;0.30;;;19.30;99.90;;;;;;4149256;28;20116;-75
2022/06/27 01:23:51;;;;;;;1.30;0.20;;;19.20;99.90;;;;;;4149643;28;20062;-74
2022/06/27 01:25:54;;;;;;;1.55;0.35;;;19.20;99.90;;;;;;4145494;28;20086;-75
2022/06/27 01:27:55;;;;;;;0.28;0.25;;;19.20;99.90;;;;;;4141046;28;20196;-75
2022/06/27 01:29:58;;;;;;;1.13;0.35;;;19.20;99.90;;;;;;4140412;28;20061;-75
2022/06/27 01:32:00;;;;;;;2.42;0.82;;;19.20;99.90;;;;;;4143091;28;20059;-75
2022/06/27 01:34:02;;;;;;;1.05;0.40;;;19.20;99.90;;;;;;4138145;28;20063;-74
2022/06/27 01:38:25;;;;;;;0.73;0.30;;;19.00;99.90;;;;;;4138418;28;20059;-75
2022/06/27 01:40:27;;;;;;;0.63;0.40;;;19.00;99.90;;;;;;4134294;28;20066;-76
2022/06/27 01:42:29;;;;;;;0.75;0.20;;;19.00;99.90;;;;;;4137816;28;20062;-75
2022/06/27 01:44:33;;;;;;;1.02;0.40;;;19.00;99.90;;;;;;4141056;28;20054;-75
2022/06/27 01:46:40;;;;;;;1.30;0.22;;;19.00;99.90;;;;;;4137385;28;20153;-75
2022/06/27 01:48:42;;;;;;;1.77;0.47;;;18.90;99.90;;;;;;4136172;28;20291;-75
2022/06/27 01:50:46;;;;;;;2.05;0.22;;;19.00;99.90;;;;;;4136923;28;20050;-75
2022/06/27 01:52:49;;;;;;;2.78;0.40;;;19.00;99.90;;;;;;4134108;28;20106;-75
2022/06/27 01:54:51;;;;;;;1.55;0.73;;;18.90;99.90;;;;;;4137534;28;20055;-75
2022/06/27 01:56:53;;;;;;;3.50;0.60;;;18.90;99.90;;;;;;4135607;28;20069;-75
2022/06/27 01:58:57;;;;;;;0.20;0.20;;;18.90;99.90;;;;;;4136724;28;20043;-76
2022/06/27 02:00:59;;;;;;;0.55;0.40;;;18.90;99.90;;;;;;4133781;28;20592;-75
2022/06/27 02:03:00;;;;;;;0.40;0.40;;;18.90;99.90;;;;;;4134484;28;20134;-76
2022/06/27 02:05:02;;;;;;;0.73;0.47;;;18.80;99.90;;;;;;4136508;28;20058;-76
2022/06/27 02:07:05;;;;;;;2.53;0.52;;;18.90;99.90;;;;;;4135486;28;20059;-76
2022/06/27 02:09:08;;;;;;;0.40;0.20;;;18.80;99.90;;;;;;4137640;28;20058;-76
2022/06/27 02:11:10;;;;;;;1.23;0.75;;;18.80;99.90;;;;;;4136604;28;20079;-76
2022/06/27 02:13:12;;;;;;;1.80;0.47;;;18.80;99.90;;;;;;4142847;28;20081;-77
2022/06/27 02:15:14;;;;;;;0.47;0.35;;;18.80;99.90;;;;;;4143396;28;20844;-76
2022/06/27 02:17:17;;;;;;;0.77;0.25;;;18.80;99.90;;;;;;4139463;28;20062;-76
2022/06/27 02:19:20;;;;;;;4.13;0.40;;;18.80;99.90;;;;;;4144942;28;20898;-75
2022/06/27 02:21:26;;;;;;;1.10;0.28;;;18.80;99.90;;;;;;4137440;28;20181;-75
2022/06/27 02:23:28;;;;;;;1.27;0.45;;;18.70;99.90;;;;;;4142240;28;20061;-76
2022/06/27 02:25:30;;;;;;;3.53;0.40;;;18.80;99.90;;;;;;4138265;28;20877;-75
2022/06/27 02:27:34;;;;;;;1.42;0.40;;;18.70;99.90;;;;;;4140865;28;20855;-75
2022/06/27 02:29:38;;;;;;;1.45;0.50;;;18.80;99.90;;;;;;4143338;28;20164;-76
2022/06/27 02:31:48;;;;;;;2.15;0.30;;;18.70;99.90;;;;;;4140122;28;20166;-75
2022/06/27 02:33:52;;;;;;;1.35;0.40;;;18.70;99.90;;;;;;4144065;28;20124;-75
2022/06/27 02:35:54;;;;;;;0.90;0.50;;;18.70;99.90;;;;;;4142098;28;20062;-76
2022/06/27 02:37:57;;;;;;;0.73;0.32;;;18.70;99.90;;;;;;4142353;28;20058;-75
2022/06/27 02:39:59;;;;;;;1.35;0.60;;;18.70;99.90;;;;;;4140420;28;20058;-75
2022/06/27 02:42:02;;;;;;;0.98;0.50;;;18.60;99.90;;;;;;4138339;28;20062;-76
2022/06/27 02:44:10;;;;;;;1.67;0.60;;;18.60;99.90;;;;;;4143573;28;20790;-75
2022/06/27 02:46:12;;;;;;;1.38;0.70;;;18.60;99.90;;;;;;4137490;28;20058;-75
2022/06/27 02:48:18;;;;;;;4.03;0.60;;;18.60;99.90;;;;;;4142516;28;20058;-75
2022/06/27 02:50:22;;;;;;;0.93;0.55;;;18.60;99.90;;;;;;4136178;28;20063;-75
2022/06/27 02:52:40;;;;;;;0.52;0.52;;;18.60;99.90;;;;;;4139081;28;20782;-75
2022/06/27 02:54:49;;;;;;;0.45;0.45;;;18.50;99.90;;;;;;4137472;28;20064;-75
2022/06/27 02:57:35;;;;;;;1.77;0.77;;;18.60;99.90;;;;;;4136244;28;20857;-75
2022/06/27 02:59:40;;;;;;;0.57;0.40;;;18.70;99.90;;;;;;4138377;28;20059;-76
2022/06/27 03:01:43;;;;;;;1.65;0.63;;;18.80;99.90;;;;;;4139635;28;20641;-76
2022/06/27 03:03:47;;;;;;;0.90;0.60;;;18.90;99.90;;;;;;4136931;28;20066;-75
2022/06/27 03:06:03;;;;;;;0.73;0.65;;;19.00;99.90;;;;;;4136594;28;20218;-75
2022/06/27 03:08:05;;;;;;;0.93;0.52;;;19.00;99.90;;;;;;4135277;28;20128;-75
2022/06/27 03:10:08;;;;;;;1.02;0.63;;;19.00;99.90;;;;;;4145919;28;20125;-73
2022/06/27 03:12:10;;;;;;;1.30;0.75;;;18.90;99.90;;;;;;4133667;28;20904;-75
2022/06/27 03:14:12;;;;;;;0.75;0.55;;;18.90;99.90;;;;;;4138360;28;20059;-75
2022/06/27 03:16:15;;;;;;;0.32;0.32;;;18.90;99.90;;;;;;4134300;28;20126;-76
2022/06/27 03:18:17;;;;;;;1.08;0.50;;;18.80;99.90;;;;;;4140829;28;20138;-77
2022/06/27 03:20:19;;;;;;;1.48;0.60;;;18.90;99.90;;;;;;4144053;28;20157;-75
2022/06/27 03:22:20;;;;;;;2.53;1.70;;;19.00;99.90;;;;;;4139869;28;20154;-75
2022/06/27 03:24:22;;;;;;;0.80;0.55;;;19.00;99.90;;;;;;4144382;28;20063;-75
2022/06/27 03:26:24;;;;;;;2.17;0.60;;;19.00;99.90;;;;;;4142815;28;20065;-75
2022/06/27 03:28:26;;;;;;;2.42;0.50;;;19.10;99.90;;;;;;4144251;28;20058;-75
2022/06/27 03:30:28;;;;;;;0.88;0.68;;;19.10;99.90;;;;;;4144637;28;20162;-75
2022/06/27 03:32:29;;;;;;;1.40;0.75;;;19.10;99.90;;;;;;4143567;28;20060;-75
2022/06/27 03:34:31;;;;;;;1.42;0.68;;;19.10;99.90;;;;;;4144394;28;20778;-75
2022/06/27 03:36:33;;;;;;;2.25;0.50;;;19.10;99.90;;;;;;4145189;28;20058;-75
2022/06/27 03:38:35;;;;;;;0.40;0.40;;;19.20;99.90;;;;;;4142374;28;20189;-75
2022/06/27 03:40:37;;;;;;;0.90;0.43;;;19.20;99.90;;;;;;4145820;28;20149;-75
2022/06/27 03:42:39;;;;;;;0.88;0.77;;;19.30;99.90;;;;;;4145356;28;20857;-75
2022/06/27 03:44:40;;;;;;;1.00;0.80;;;19.40;99.90;;;;;;4145809;28;20069;-75
2022/06/27 03:46:42;;;;;;;0.68;0.40;;;19.50;99.90;;;;;;4145341;28;20066;-75
2022/06/27 03:51:05;;;;;;;0.75;0.52;;;19.70;99.90;;;;;;4140748;28;20067;-75
2022/06/27 03:53:07;;;;;;;1.98;0.77;;;19.60;99.90;;;;;;4141450;28;20062;-75
2022/06/27 03:55:10;;;;;;;2.58;0.63;;;19.60;99.90;;;;;;4143458;28;20948;-75
2022/06/27 03:57:12;;;;;;;0.60;0.40;;;19.60;99.90;;;;;;4144391;28;21130;-74
2022/06/27 03:59:14;;;;;;;0.77;0.50;;;19.50;99.90;;;;;;4141596;28;20106;-74
2022/06/27 04:01:15;;;;;;;0.47;0.30;;;19.40;99.90;;;;;;4139243;28;20861;-75
2022/06/27 04:03:17;;;;;;;1.48;0.50;;;19.40;99.90;;;;;;4144203;28;20066;-75
2022/06/27 04:05:19;;;;;;;2.97;0.95;;;19.30;99.90;;;;;;4142562;28;20637;-75
2022/06/27 04:07:20;;;;;;;0.45;0.28;;;19.30;99.90;;;;;;4143506;28;20062;-76
2022/06/27 04:09:22;;;;;;;0.47;0.40;;;19.20;99.90;;;;;;4142638;28;20762;-75
2022/06/27 04:11:24;;;;;;;0.75;0.40;;;19.20;99.90;;;;;;4144940;28;20063;-75
2022/06/27 04:13:25;;;;;;;0.63;0.60;;;19.20;99.90;;;;;;4144014;28;20821;-75
2022/06/27 04:15:27;;;;;;;2.67;0.55;;;19.20;99.90;;;;;;4140335;28;20062;-75
2022/06/27 04:17:29;;;;;;;0.73;0.50;;;19.20;99.90;;;;;;4141720;28;20840;-76
2022/06/27 04:19:30;;;;;;;0.50;0.50;;;19.30;99.90;;;;;;4138230;28;20062;-75
2022/06/27 04:21:32;;;;;;;3.47;0.40;;;19.30;99.90;;;;;;4138746;28;20794;-76
2022/06/27 04:23:34;;;;;;;0.45;0.45;;;19.40;99.90;;;;;;4145053;28;20136;-75
2022/06/27 04:25:35;;;;;;;2.03;0.45;;;19.40;99.90;;;;;;4140123;28;20066;-75
2022/06/27 04:27:40;;;;;;;0.63;0.45;;;19.30;99.90;;;;;;4136088;28;20062;-75
2022/06/27 04:29:42;;;;;;;1.70;0.50;;;19.40;99.90;;;;;;4135139;28;20105;-76
2022/06/27 04:31:44;;;;;;;3.03;0.60;;;19.40;99.90;;;;;;4135188;28;20842;-75
2022/06/27 04:33:46;;;;;;;1.80;0.60;;;19.30;99.90;;;;;;4134873;28;20776;-75
2022/06/27 04:35:48;;;;;;;2.05;1.27;;;19.20;99.90;;;;;;4141465;28;20069;-76
2022/06/27 04:37:49;;;;;;;0.60;0.55;;;19.20;99.90;;;;;;4136735;28;20808;-76
2022/06/27 04:39:51;;;;;;;2.17;0.85;;;19.20;99.90;;;;;;4137030;28;20063;-75
2022/06/27 04:41:53;;;;;;;0.47;0.40;;;19.10;99.90;;;;;;4141148;28;20059;-75
2022/06/27 04:43:55;;;;;;;0.43;0.38;;;19.10;99.90;;;;;;4138811;28;20060;-74
2022/06/27 04:45:57;;;;;;;0.35;0.35;;;19.10;99.90;;;;;;4138930;28;20057;-75
2022/06/27 04:48:00;;;;;;;1.52;0.57;;;19.00;99.90;;;;;;4137739;28;21196;-75
2022/06/27 04:50:02;;;;;;;1.55;0.60;;;19.00;99.90;;;;;;4140620;28;20969;-76
2022/06/27 04:52:07;;;;;;;1.40;0.52;;;19.00;99.90;;;;;;4143828;28;20058;-75
2022/06/27 04:54:12;;;;;;;0.40;0.40;;;19.00;99.90;;;;;;4145171;28;20845;-76
2022/06/27 04:56:14;;;;;;;1.40;0.40;;;19.00;99.90;;;;;;4145233;28;20063;-77
2022/06/27 04:58:16;;;;;;;0.80;0.47;;;19.00;99.90;;;;;;4148384;28;20866;-76
2022/06/27 05:00:17;;;;;;;2.53;0.68;;;19.00;99.90;;;;;;4146730;28;20062;-77
2022/06/27 05:02:23;;;;;;;2.30;0.40;;;19.00;99.90;;;;;;4146111;28;20046;-76
2022/06/27 05:04:24;;;;;;;0.82;0.50;;;19.00;99.90;;;;;;4149067;28;20066;-76
2022/06/27 05:06:26;;;;;;;1.95;0.57;;;19.10;99.90;;;;;;4149988;28;20070;-76
2022/06/27 05:08:28;;;;;;;1.55;1.45;;;19.10;99.90;;;;;;4147197;28;20062;-73
2022/06/27 05:10:29;;;;;;;0.52;0.40;;;19.20;99.90;;;;;;4148369;28;20066;-76
2022/06/27 05:12:31;;;;;;;0.30;0.30;;;19.20;99.90;;;;;;4147261;28;20058;-75
2022/06/27 05:14:33;;;;;;;0.32;0.30;;;19.20;99.90;;;;;;4148075;28;20156;-75
2022/06/27 05:16:35;;;;;;;0.70;0.50;;;19.30;99.90;;;;;;4147776;28;20066;-77
2022/06/27 05:18:36;;;;;;;1.15;0.60;;;19.30;99.90;;;;;;4147823;28;20058;-76
2022/06/27 05:20:59;;;;;;;1.90;0.40;;;19.40;99.90;;;;;;4144714;28;20616;-77
2022/06/27 05:23:01;;;;;;;0.88;0.35;;;19.40;99.90;;;;;;4140953;28;20058;-73
2022/06/27 05:25:02;;;;;;;1.13;0.40;;;19.50;99.90;;;;;;4140772;28;20773;-75
2022/06/27 05:27:05;;;;;;;0.63;0.40;;;19.60;99.90;;;;;;4146799;28;20054;-76
2022/06/27 05:29:07;;;;;;;1.45;0.47;;;19.60;99.90;;;;;;4146633;28;20054;-76
2022/06/27 05:31:09;;;;;;;1.42;0.95;;;19.60;99.90;;;;;;4146758;28;20069;-75
2022/06/27 05:33:11;;;;;;;1.55;0.60;;;19.60;99.90;;;;;;4144804;28;20059;-76
2022/06/27 05:35:13;;;;;;;0.40;0.35;;;19.60;99.90;;;;;;4143925;28;20169;-76
2022/06/27 05:37:15;;;;;;;0.55;0.52;;;19.40;99.90;;;;;;4145476;28;20142;-75
2022/06/27 05:39:17;;;;;;;0.63;0.52;;;19.40;99.90;;;;;;4142879;28;20058;-76
2022/06/27 05:41:18;;;;;;;0.52;0.43;;;19.40;99.90;;;;;;4144858;28;20168;-76
2022/06/27 05:43:21;;;;;;;1.58;0.77;;;19.30;99.90;;;;;;4145236;28;20866;-76
2022/06/27 05:45:24;;;;;;;0.80;0.57;;;19.40;99.90;;;;;;4144292;28;20054;-75
2022/06/27 05:47:26;;;;;;;0.98;0.50;;;19.40;99.90;;;;;;4142956;28;20086;-75
2022/06/27 05:49:28;;;;;;;2.50;0.50;;;19.30;99.90;;;;;;4143050;28;20161;-76
2022/06/27 05:51:29;;;;;;;0.95;0.57;;;19.40;99.90;;;;;;4142920;28;20062;-75
2022/06/27 05:53:32;;;;;;;1.08;0.80;;;19.40;99.90;;;;;;4142452;28;20065;-75
2022/06/27 05:55:34;;;;;;;0.68;0.68;;;19.40;99.90;;;;;;4141400;28;20063;-75
2022/06/27 05:57:36;;;;;;;1.83;0.70;;;19.40;99.90;;;;;;4144976;28;20376;-76
2022/06/27 05:59:39;;;;;;;1.40;0.63;;;19.40;99.90;;;;;;4144265;28;20065;-76
2022/06/27 06:01:41;;;;;;;1.83;0.70;;;19.40;99.90;;;;;;4144641;28;20097;-76
2022/06/27 06:03:43;;;;;;;2.22;0.60;;;19.40;99.90;;;;;;4146047;28;20065;-76
2022/06/27 06:05:45;;;;;;;0.65;0.57;;;19.40;99.90;;;;;;4146182;28;20050;-76
2022/06/27 06:07:48;;;;;;;0.60;0.60;;;19.50;99.90;;;;;;4143538;28;20062;-76
2022/06/27 06:09:49;;;;;;;1.48;0.65;;;19.40;99.90;;;;;;4144763;28;20812;-75
2022/06/27 06:11:51;;;;;;;0.40;0.40;;;19.50;99.90;;;;;;4146183;28;20069;-76
2022/06/27 06:13:54;;;;;;;0.40;0.40;;;19.50;99.90;;;;;;4145676;28;20101;-76
2022/06/27 06:15:57;;;;;;;0.50;0.38;;;19.40;99.90;;;;;;4145515;28;20046;-76
2022/06/27 06:18:03;;;;;;;2.88;0.40;;;19.50;99.90;;;;;;4145974;28;20058;-76
2022/06/27 06:20:06;;;;;;;2.70;0.38;;;19.40;99.90;;;;;;4146899;28;20089;-76
2022/06/27 06:22:08;;;;;;;0.50;0.40;;;19.40;99.90;;;;;;4146492;28;20058;-76
2022/06/27 06:24:10;;;;;;;0.75;0.30;;;19.40;99.90;;;;;;4145580;28;20932;-75
2022/06/27 06:26:14;;;;;;;1.35;0.47;;;19.40;99.90;;;;;;4146395;28;20070;-75
2022/06/27 06:28:16;;;;;;;1.25;0.52;;;19.40;99.90;;;;;;4146850;28;20848;-75
2022/06/27 06:30:19;;;;;;;0.30;0.30;;;19.50;99.90;;;;;;4146406;28;20062;-75
2022/06/27 06:32:21;;;;;;;0.32;0.28;;;19.50;99.90;;;;;;4144611;28;20097;-75
2022/06/27 06:34:23;;;;;;;0.88;0.50;;;19.60;99.90;;;;;;4146683;28;20136;-75
2022/06/27 06:36:26;;;;;;;0.57;0.22;;;19.60;99.90;;;;;;4144841;28;20913;-76
2022/06/27 06:38:29;;;;;;;1.30;0.45;;;19.70;99.90;;;;;;4144985;28;20058;-76
2022/06/27 06:40:31;;;;;;;0.40;0.38;;;19.70;99.90;;;;;;4142059;28;20098;-76
2022/06/27 06:42:34;;;;;;;0.40;0.20;;;19.80;99.90;;;;;;4139882;28;20159;-75
2022/06/27 06:44:36;;;;;;;1.88;1.23;;;19.80;99.90;;;;;;4142309;28;20659;-76
2022/06/27 06:46:39;;;;;;;0.63;0.40;;;19.90;99.90;;;;;;4143434;28;20064;-75
2022/06/27 06:48:41;;;;;;;0.52;0.30;;;19.90;99.90;;;;;;4142801;28;20069;-73
2022/06/27 06:50:48;;;;;;;1.13;0.43;;;19.90;99.90;;;;;;4142098;28;20051;-74
2022/06/27 06:52:51;;;;;;;1.23;0.50;;;19.90;99.90;;;;;;4141652;28;20785;-73
2022/06/27 06:54:52;;;;;;;0.98;0.40;;;20.00;99.90;;;;;;4143468;28;20894;-72
2022/06/27 06:56:55;;;;;;;0.57;0.35;;;20.00;99.90;;;;;;4137071;28;20063;-71
2022/06/27 06:58:58;;;;;;;1.10;0.35;;;20.10;99.90;;;;;;4137825;28;20130;-71
2022/06/27 07:01:01;;;;;;;1.02;0.30;;;20.10;99.90;;;;;;4134625;28;20055;-77
2022/06/27 07:03:03;;;;;;;0.60;0.30;;;20.20;99.90;;;;;;4143044;28;20074;-75
2022/06/27 07:05:11;;;;;;;1.05;0.47;;;20.20;99.90;;;;;;4135323;28;20055;-76
2022/06/27 07:07:13;;;;;;;9.82;0.90;;;20.20;99.90;;;;;;4136874;28;20617;-75
2022/06/27 07:09:15;;;;;;;0.90;0.40;;;20.20;99.90;;;;;;4142025;28;20062;-75
2022/06/27 07:11:17;;;;;;;1.17;0.20;;;20.30;99.90;;;;;;4137149;28;20054;-76
2022/06/27 07:13:19;;;;;;;0.80;0.28;;;20.30;99.90;;;;;;4135056;28;20152;-75
2022/06/27 07:15:21;;;;;;;0.65;0.40;;;20.20;99.90;;;;;;4136176;28;20062;-75
2022/06/27 07:17:26;;;;;;;1.55;0.47;;;20.20;99.90;;;;;;4136276;28;20181;-75
2022/06/27 07:19:29;;;;;;;1.55;0.45;;;20.20;99.90;;;;;;4135306;28;21106;-76
2022/06/27 07:21:31;;;;;;;1.27;0.40;;;20.20;99.90;;;;;;4137722;28;20062;-75
2022/06/27 07:23:33;;;;;;;1.85;0.32;;;20.20;99.90;;;;;;4136538;28;20102;-76
2022/06/27 07:25:36;;;;;;;1.90;0.22;;;20.20;99.90;;;;;;4143311;28;20123;-76
2022/06/27 07:27:39;;;;;;;0.32;0.20;;;20.20;99.90;;;;;;4136691;28;20157;-75
2022/06/27 07:29:42;;;;;;;1.48;0.55;;;20.10;99.90;;;;;;4139713;28;20058;-75
2022/06/27 07:31:44;;;;;;;0.73;0.30;;;20.20;99.90;;;;;;4139565;28;20058;-75
2022/06/27 07:33:51;;;;;;;1.17;0.40;;;20.20;99.90;;;;;;4139121;28;20774;-75
2022/06/27 07:35:53;;;;;;;0.80;0.25;;;20.20;99.90;;;;;;4140063;28;20834;-75
2022/06/27 07:37:55;;;;;;;0.30;0.30;;;20.30;99.90;;;;;;4140795;28;20847;-75
2022/06/27 07:39:56;;;;;;;0.43;0.40;;;20.40;99.90;;;;;;4140632;28;20065;-75
2022/06/27 07:41:58;;;;;;;0.52;0.30;;;20.40;99.90;;;;;;4141240;28;20133;-76
2022/06/27 07:44:02;;;;;;;0.50;0.35;;;20.50;99.90;;;;;;4136919;28;20081;-75
2022/06/27 07:46:04;;;;;;;0.52;0.35;;;20.50;99.90;;;;;;4141099;28;20062;-76
2022/06/27 07:48:06;;;;;;;0.65;0.40;;;20.60;99.90;;;;;;4143009;28;20818;-75
2022/06/27 07:50:09;;;;;;;2.25;0.60;;;20.60;99.90;;;;;;4139849;28;20058;-76
2022/06/27 07:52:12;;;;;;;0.60;0.40;;;20.60;99.90;;;;;;4140266;28;20133;-75
2022/06/27 07:54:14;;;;;;;1.48;0.55;;;20.60;99.90;;;;;;4140939;28;20059;-75
2022/06/27 07:56:18;;;;;;;1.10;0.55;;;20.60;99.90;;;;;;4134034;28;20065;-76
2022/06/27 07:58:38;;;;;;;1.58;0.73;;;20.60;99.90;;;;;;4139447;28;20058;-75
2022/06/27 08:00:41;;;;;;;0.57;0.43;;;20.60;99.90;;;;;;4141435;28;20046;-75
2022/06/27 08:02:43;;;;;;;2.30;0.43;;;20.60;99.90;;;;;;4138009;28;20850;-75
2022/06/27 08:04:44;;;;;;;0.40;0.40;;;20.60;99.90;;;;;;4143681;28;20120;-75
2022/06/27 08:06:49;;;;;;;2.17;0.32;;;20.50;99.90;;;;;;4135123;28;20062;-75
2022/06/27 08:08:55;;;;;;;1.40;0.30;;;20.50;99.90;;;;;;4134573;28;20760;-75
2022/06/27 08:10:57;;;;;;;0.40;0.40;;;20.50;99.90;;;;;;4137782;28;20062;-75
2022/06/27 08:12:59;;;;;;;1.08;0.35;;;20.50;99.90;;;;;;4137245;28;20873;-75
2022/06/27 08:15:01;;;;;;;1.80;0.50;;;20.60;99.90;;;;;;4139742;28;20149;-76
2022/06/27 08:17:04;;;;;;;0.30;0.30;;;20.70;99.90;;;;;;4141411;28;20059;-76
2022/06/27 08:19:07;;;;;;;1.73;0.73;;;20.70;99.90;;;;;;4133681;28;20109;-75
2022/06/27 08:21:10;;;;;;;0.45;0.40;;;20.70;99.90;;;;;;4135226;28;20062;-75
2022/06/27 08:23:13;;;;;;;0.43;0.40;;;20.70;99.90;;;;;;4133150;28;20058;-75
2022/06/27 08:25:15;;;;;;;0.70;0.43;;;20.70;99.90;;;;;;4133817;28;20885;-74
2022/06/27 08:27:16;;;;;;;0.47;0.40;;;20.70;99.90;;;;;;4132839;28;20889;-75
2022/06/27 08:29:20;;;;;;;0.45;0.40;;;20.80;99.90;;;;;;4135749;28;20063;-75
2022/06/27 08:31:22;;;;;;;0.40;0.40;;;20.80;99.90;;;;;;4134850;28;20861;-76
2022/06/27 08:33:26;;;;;;;2.13;0.60;;;20.80;99.90;;;;;;4133516;28;20054;-76
2022/06/27 08:35:29;;;;;;;0.63;0.47;;;20.80;99.90;;;;;;4136511;28;20154;-76
2022/06/27 08:37:30;;;;;;;0.38;0.35;;;20.80;99.90;;;;;;4136530;28;20128;-76
2022/06/27 08:39:32;;;;;;;0.50;0.50;;;20.90;99.90;;;;;;4145744;28;20070;-75
2022/06/27 08:41:35;;;;;;;0.43;0.43;;;20.90;99.90;;;;;;4140294;28;20161;-76
2022/06/27 08:43:37;;;;;;;0.77;0.55;;;20.90;99.90;;;;;;4139960;28;20755;-76
2022/06/27 08:45:39;;;;;;;0.22;0.22;;;21.00;99.90;;;;;;4142909;28;20753;-76
2022/06/27 08:47:42;;;;;;;2.10;0.40;;;21.00;99.90;;;;;;4142848;28;20149;-75
2022/06/27 08:49:46;;;;;;;0.60;0.40;;;21.10;99.90;;;;;;4143123;28;20063;-75
2022/06/27 08:51:48;;;;;;;0.47;0.30;;;21.10;99.90;;;;;;4146098;28;20125;-76
2022/06/27 08:53:54;;;;;;;0.82;0.45;;;21.10;99.90;;;;;;4142398;28;20137;-76
2022/06/27 08:55:56;;;;;;;0.95;0.50;;;21.10;99.90;;;;;;4144279;28;20058;-75
2022/06/27 08:58:03;;;;;;;1.45;0.50;;;21.00;99.80;;;;;;4143231;28;20141;-76
2022/06/27 09:00:15;;;;;;;0.45;0.32;;;21.00;99.70;;;;;;4142781;28;20785;-76
2022/06/27 09:02:17;;;;;;;1.20;0.40;;;21.00;99.40;;;;;;4142355;28;20069;-77
2022/06/27 09:04:19;;;;;;;4.40;0.32;;;21.00;99.30;;;;;;4142172;28;20990;-75
2022/06/27 09:06:21;;;;;;;1.55;0.50;;;20.90;98.90;;;;;;4140505;28;20153;-76
2022/06/27 09:08:25;;;;;;;0.52;0.20;;;20.90;98.40;;;;;;4140343;28;20055;-76
2022/06/27 09:10:42;;;;;;;0.30;0.30;;;20.90;98.40;;;;;;4143666;28;20169;-75
2022/06/27 09:12:59;;;;;;;0.52;0.40;;;20.80;98.40;;;;;;4141450;28;20058;-75
2022/06/27 09:15:01;;;;;;;0.40;0.40;;;20.80;98.40;;;;;;4143193;28;20805;-76
2022/06/27 09:17:12;;;;;;;0.65;0.55;;;20.80;98.30;;;;;;4138046;28;20146;-75
2022/06/27 09:19:14;;;;;;;0.65;0.35;;;20.70;98.10;;;;;;4138428;28;21186;-75
2022/06/27 09:21:17;;;;;;;0.45;0.30;;;20.70;98.40;;;;;;4145523;28;20062;-76
2022/06/27 09:23:39;;;;;;;0.32;0.30;;;20.60;98.50;;;;;;4142709;28;20365;-76
2022/06/27 09:25:41;;;;;;;0.60;0.40;;;20.60;98.30;;;;;;4145765;28;21341;-76
2022/06/27 09:27:50;;;;;;;0.80;0.57;;;20.60;98.40;;;;;;4137872;28;20866;-76
2022/06/27 09:29:53;;;;;;;0.63;0.60;;;20.70;98.40;;;;;;4137414;28;20058;-75
2022/06/27 09:31:55;;;;;;;5.05;0.55;;;20.60;98.40;;;;;;4140364;28;20069;-76
2022/06/27 09:34:18;;;;;;;3.42;0.40;;;20.70;98.40;;;;;;4136772;28;20055;-75
2022/06/27 09:36:21;;;;;;;1.67;0.40;;;20.70;98.30;;;;;;4136260;28;20058;-76
2022/06/27 09:38:22;;;;;;;0.43;0.30;;;20.70;98.30;;;;;;4134328;28;20215;-75
2022/06/27 09:40:26;;;;;;;2.70;0.30;;;20.70;98.10;;;;;;4136715;28;20769;-76
2022/06/27 09:42:33;;;;;;;2.90;0.40;;;20.70;98.00;;;;;;4135317;28;20900;-76
2022/06/27 09:44:38;;;;;;;2.03;0.40;;;20.70;97.80;;;;;;4136924;28;20186;-76
2022/06/27 09:46:50;;;;;;;0.60;0.55;;;20.70;98.10;;;;;;4137156;28;20067;-76
2022/06/27 09:48:52;;;;;;;1.08;0.30;;;20.70;97.90;;;;;;4135696;28;20055;-76
2022/06/27 09:50:55;;;;;;;0.45;0.28;;;20.70;97.80;;;;;;4137187;28;20055;-76
2022/06/27 09:52:57;;;;;;;3.10;0.45;;;20.80;97.50;;;;;;4140885;28;20757;-75
2022/06/27 09:54:59;;;;;;;1.70;1.42;;;20.80;97.60;;;;;;4136497;28;20884;-75
2022/06/27 09:57:04;;;;;;;0.73;0.30;;;20.80;97.50;;;;;;4140752;28;20059;-75
2022/06/27 09:59:12;;;;;;;0.32;0.30;;;20.80;97.50;;;;;;4139337;28;20165;-76
2022/06/27 10:01:15;;;;;;;1.63;0.30;;;20.80;97.80;;;;;;4143231;28;20090;-75
2022/06/27 10:03:17;;;;;;;2.30;0.60;;;20.90;97.90;;;;;;4142196;28;20655;-75
2022/06/27 10:05:20;;;;;;;0.40;0.40;;;20.90;97.60;;;;;;4145703;28;20186;-75
2022/06/27 10:07:22;;;;;;;0.50;0.40;;;20.80;97.20;;;;;;4141652;28;20065;-75
2022/06/27 10:09:25;;;;;;;0.45;0.38;;;20.80;97.20;;;;;;4140119;28;20058;-75
2022/06/27 10:11:27;;;;;;;0.60;0.47;;;20.80;97.10;;;;;;4143673;28;20177;-75
2022/06/27 10:13:29;;;;;;;0.73;0.40;;;20.80;97.10;;;;;;4140925;28;20153;-76
2022/06/27 10:15:36;;;;;;;2.97;0.57;;;20.80;97.20;;;;;;4140175;28;20077;-75
2022/06/27 10:17:46;;;;;;;1.67;0.47;;;20.80;97.30;;;;;;4142211;28;20058;-75
2022/06/27 10:20:05;;;;;;;1.52;0.50;;;20.80;97.50;;;;;;4140973;28;20892;-76
2022/06/27 10:22:24;;;;;;;1.05;0.40;;;20.70;97.60;;;;;;4139568;28;20054;-75
2022/06/27 10:24:29;;;;;;;0.63;0.50;;;20.70;97.60;;;;;;4140823;28;20117;-75
2022/06/27 10:26:51;;;;;;;0.85;0.57;;;20.70;97.70;;;;;;4140345;28;20055;-75
2022/06/27 10:29:28;;;;;;;0.30;0.30;;;20.70;97.70;;;;;;4140732;28;20722;-75
2022/06/27 10:31:44;;;;;;;0.70;0.45;;;20.70;97.60;;;;;;4139982;28;20061;-75
2022/06/27 10:33:49;;;;;;;0.45;0.40;;;20.70;97.60;;;;;;4136540;28;20888;-75
2022/06/27 10:36:02;;;;;;;0.55;0.50;;;20.70;97.60;;;;;;4142099;28;20240;-75
2022/06/27 10:38:21;;;;;;;1.05;0.98;;;20.60;97.80;;;;;;4143614;28;20051;-75
2022/06/27 10:40:28;;;;;;;1.13;0.90;;;20.60;98.00;;;;;;4142863;28;20065;-75
2022/06/27 10:42:49;;;;;;;0.90;0.57;;;20.60;98.00;;;;;;4145609;28;20054;-77
2022/06/27 10:44:50;;;;;;;0.50;0.50;;;20.60;98.00;;;;;;4134775;28;20245;-75
2022/06/27 10:46:52;;;;;;;1.08;0.80;;;20.60;98.10;;;;;;4138283;28;20165;-75
2022/06/27 10:48:56;;;;;;;0.80;0.80;;;20.60;98.10;;;;;;4136550;28;20069;-75